sensor_id;sensor_type;location;lat;lon;timestamp;P1;durP1;ratioP1;P2;durP2;ratioP2
64714;SDS011;51144;53.002;6.506;2023-04-23T00:00:04;35.70;;;28.50;;
64714;SDS011;51144;53.002;6.506;2023-04-23T00:02:31;36.17;;;28.70;;
64714;SDS011;51144;53.002;6.506;2023-04-23T00:05:01;34.20;;;27.42;;
64714;SDS011;51144;53.002;6.506;2023-04-23T00:07:32;35.20;;;28.02;;
64714;SDS011;51144;53.002;6.506;2023-04-23T00:09:58;31.60;;;26.92;;
64714;SDS011;51144;53.002;6.506;2023-04-23T00:12:25;35.08;;;27.77;;
64714;SDS011;51144;53.002;6.506;2023-04-23T00:14:51;34.55;;;27.42;;
64714;SDS011;51144;53.002;6.506;2023-04-23T00:17:17;34.78;;;27.35;;
64714;SDS011;51144;53.002;6.506;2023-04-23T00:19:44;31.45;;;27.02;;
64714;SDS011;51144;53.002;6.506;2023-04-23T00:22:10;35.33;;;26.60;;
64714;SDS011;51144;53.002;6.506;2023-04-23T00:24:37;36.70;;;26.60;;
64714;SDS011;51144;53.002;6.506;2023-04-23T00:27:03;35.40;;;28.92;;
64714;SDS011;51144;53.002;6.506;2023-04-23T00:29:29;33.67;;;28.00;;
64714;SDS011;51144;53.002;6.506;2023-04-23T00:31:55;33.65;;;27.58;;
64714;SDS011;51144;53.002;6.506;2023-04-23T00:34:20;34.28;;;27.52;;
64714;SDS011;51144;53.002;6.506;2023-04-23T00:36:46;32.70;;;27.58;;
64714;SDS011;51144;53.002;6.506;2023-04-23T00:39:12;35.10;;;27.70;;
64714;SDS011;51144;53.002;6.506;2023-04-23T00:41:38;37.65;;;29.50;;
64714;SDS011;51144;53.002;6.506;2023-04-23T00:44:05;37.55;;;28.50;;
64714;SDS011;51144;53.002;6.506;2023-04-23T00:46:32;35.35;;;28.17;;
64714;SDS011;51144;53.002;6.506;2023-04-23T00:48:59;39.17;;;28.45;;
64714;SDS011;51144;53.002;6.506;2023-04-23T00:51:25;35.13;;;28.20;;
64714;SDS011;51144;53.002;6.506;2023-04-23T00:53:52;36.42;;;28.83;;
64714;SDS011;51144;53.002;6.506;2023-04-23T00:56:18;35.83;;;28.50;;
64714;SDS011;51144;53.002;6.506;2023-04-23T00:58:44;37.90;;;28.17;;
64714;SDS011;51144;53.002;6.506;2023-04-23T01:01:10;39.50;;;28.95;;
64714;SDS011;51144;53.002;6.506;2023-04-23T01:03:36;36.45;;;29.58;;
64714;SDS011;51144;53.002;6.506;2023-04-23T01:06:04;43.72;;;28.98;;
64714;SDS011;51144;53.002;6.506;2023-04-23T01:08:30;37.65;;;30.17;;
64714;SDS011;51144;53.002;6.506;2023-04-23T01:10:58;37.90;;;30.77;;
64714;SDS011;51144;53.002;6.506;2023-04-23T01:13:24;38.33;;;30.33;;
64714;SDS011;51144;53.002;6.506;2023-04-23T01:15:53;36.80;;;29.17;;
64714;SDS011;51144;53.002;6.506;2023-04-23T01:18:19;37.95;;;29.35;;
64714;SDS011;51144;53.002;6.506;2023-04-23T01:20:46;41.80;;;30.70;;
64714;SDS011;51144;53.002;6.506;2023-04-23T01:23:13;40.13;;;30.60;;
64714;SDS011;51144;53.002;6.506;2023-04-23T01:25:40;39.53;;;30.88;;
64714;SDS011;51144;53.002;6.506;2023-04-23T01:28:06;39.17;;;32.55;;
64714;SDS011;51144;53.002;6.506;2023-04-23T01:30:32;43.95;;;33.38;;
64714;SDS011;51144;53.002;6.506;2023-04-23T01:32:58;44.35;;;34.50;;
64714;SDS011;51144;53.002;6.506;2023-04-23T01:35:25;51.38;;;36.13;;
64714;SDS011;51144;53.002;6.506;2023-04-23T01:37:50;46.05;;;35.30;;
64714;SDS011;51144;53.002;6.506;2023-04-23T01:40:18;49.45;;;36.13;;
64714;SDS011;51144;53.002;6.506;2023-04-23T01:42:44;52.13;;;38.75;;
64714;SDS011;51144;53.002;6.506;2023-04-23T01:45:11;50.88;;;38.03;;
64714;SDS011;51144;53.002;6.506;2023-04-23T01:47:37;60.60;;;41.75;;
64714;SDS011;51144;53.002;6.506;2023-04-23T01:50:07;62.13;;;42.08;;
64714;SDS011;51144;53.002;6.506;2023-04-23T01:52:33;57.95;;;41.90;;
64714;SDS011;51144;53.002;6.506;2023-04-23T01:54:59;64.47;;;45.45;;
64714;SDS011;51144;53.002;6.506;2023-04-23T01:57:26;63.88;;;45.30;;
64714;SDS011;51144;53.002;6.506;2023-04-23T01:59:56;71.50;;;49.22;;
64714;SDS011;51144;53.002;6.506;2023-04-23T02:02:32;64.53;;;46.28;;
64714;SDS011;51144;53.002;6.506;2023-04-23T02:04:58;68.05;;;48.00;;
64714;SDS011;51144;53.002;6.506;2023-04-23T02:07:29;67.47;;;49.00;;
64714;SDS011;51144;53.002;6.506;2023-04-23T02:09:55;80.70;;;50.10;;
64714;SDS011;51144;53.002;6.506;2023-04-23T02:12:21;70.22;;;48.85;;
64714;SDS011;51144;53.002;6.506;2023-04-23T02:14:47;71.78;;;50.75;;
64714;SDS011;51144;53.002;6.506;2023-04-23T02:17:12;73.70;;;48.75;;
64714;SDS011;51144;53.002;6.506;2023-04-23T02:19:38;71.15;;;48.92;;
64714;SDS011;51144;53.002;6.506;2023-04-23T02:22:03;72.00;;;48.42;;
64714;SDS011;51144;53.002;6.506;2023-04-23T02:24:29;72.63;;;49.28;;
64714;SDS011;51144;53.002;6.506;2023-04-23T02:26:55;75.70;;;52.17;;
64714;SDS011;51144;53.002;6.506;2023-04-23T02:29:22;73.05;;;49.88;;
64714;SDS011;51144;53.002;6.506;2023-04-23T02:31:47;67.88;;;48.97;;
64714;SDS011;51144;53.002;6.506;2023-04-23T02:34:13;71.95;;;48.58;;
64714;SDS011;51144;53.002;6.506;2023-04-23T02:36:38;76.90;;;51.03;;
64714;SDS011;51144;53.002;6.506;2023-04-23T02:39:04;73.82;;;48.60;;
64714;SDS011;51144;53.002;6.506;2023-04-23T02:41:30;80.47;;;50.08;;
64714;SDS011;51144;53.002;6.506;2023-04-23T02:43:56;82.43;;;51.85;;
64714;SDS011;51144;53.002;6.506;2023-04-23T02:46:21;94.60;;;56.72;;
64714;SDS011;51144;53.002;6.506;2023-04-23T02:48:47;90.85;;;56.50;;
64714;SDS011;51144;53.002;6.506;2023-04-23T02:51:13;94.03;;;53.45;;
64714;SDS011;51144;53.002;6.506;2023-04-23T02:53:44;84.30;;;52.17;;
64714;SDS011;51144;53.002;6.506;2023-04-23T02:56:10;87.75;;;56.35;;
64714;SDS011;51144;53.002;6.506;2023-04-23T02:58:36;84.40;;;55.25;;
64714;SDS011;51144;53.002;6.506;2023-04-23T03:01:01;86.57;;;54.83;;
64714;SDS011;51144;53.002;6.506;2023-04-23T03:03:28;87.95;;;57.95;;
64714;SDS011;51144;53.002;6.506;2023-04-23T03:05:55;99.43;;;58.88;;
64714;SDS011;51144;53.002;6.506;2023-04-23T03:08:21;92.20;;;59.33;;
64714;SDS011;51144;53.002;6.506;2023-04-23T03:10:47;102.45;;;59.80;;
64714;SDS011;51144;53.002;6.506;2023-04-23T03:13:12;98.72;;;58.63;;
64714;SDS011;51144;53.002;6.506;2023-04-23T03:15:39;168.68;;;64.38;;
64714;SDS011;51144;53.002;6.506;2023-04-23T03:18:05;214.32;;;64.38;;
64714;SDS011;51144;53.002;6.506;2023-04-23T03:20:32;490.35;;;66.22;;
64714;SDS011;51144;53.002;6.506;2023-04-23T03:23:01;366.30;;;72.72;;
64714;SDS011;51144;53.002;6.506;2023-04-23T03:25:30;367.05;;;66.97;;
64714;SDS011;51144;53.002;6.506;2023-04-23T03:27:56;622.75;;;81.75;;
64714;SDS011;51144;53.002;6.506;2023-04-23T03:30:22;359.92;;;66.57;;
64714;SDS011;51144;53.002;6.506;2023-04-23T03:32:48;534.47;;;76.60;;
64714;SDS011;51144;53.002;6.506;2023-04-23T03:35:14;479.88;;;78.22;;
64714;SDS011;51144;53.002;6.506;2023-04-23T03:37:40;675.20;;;87.63;;
64714;SDS011;51144;53.002;6.506;2023-04-23T03:40:06;167.88;;;64.78;;
64714;SDS011;51144;53.002;6.506;2023-04-23T03:42:33;256.17;;;72.25;;
64714;SDS011;51144;53.002;6.506;2023-04-23T03:44:59;113.18;;;65.13;;
64714;SDS011;51144;53.002;6.506;2023-04-23T03:47:25;220.02;;;70.45;;
64714;SDS011;51144;53.002;6.506;2023-04-23T03:49:51;134.50;;;65.80;;
64714;SDS011;51144;53.002;6.506;2023-04-23T03:52:17;161.48;;;70.15;;
64714;SDS011;51144;53.002;6.506;2023-04-23T03:54:43;127.57;;;66.50;;
64714;SDS011;51144;53.002;6.506;2023-04-23T03:57:08;218.55;;;72.50;;
64714;SDS011;51144;53.002;6.506;2023-04-23T03:59:36;241.70;;;69.50;;
64714;SDS011;51144;53.002;6.506;2023-04-23T04:02:02;185.02;;;68.22;;
64714;SDS011;51144;53.002;6.506;2023-04-23T04:04:28;166.27;;;68.28;;
64714;SDS011;51144;53.002;6.506;2023-04-23T04:06:54;233.88;;;71.43;;
64714;SDS011;51144;53.002;6.506;2023-04-23T04:09:20;428.55;;;74.82;;
64714;SDS011;51144;53.002;6.506;2023-04-23T04:11:46;286.33;;;75.43;;
64714;SDS011;51144;53.002;6.506;2023-04-23T04:14:12;254.95;;;69.80;;
64714;SDS011;51144;53.002;6.506;2023-04-23T04:16:38;325.10;;;70.50;;
64714;SDS011;51144;53.002;6.506;2023-04-23T04:19:04;226.57;;;66.80;;
64714;SDS011;51144;53.002;6.506;2023-04-23T04:21:30;274.42;;;67.60;;
64714;SDS011;51144;53.002;6.506;2023-04-23T04:23:57;207.27;;;68.15;;
64714;SDS011;51144;53.002;6.506;2023-04-23T04:26:25;189.15;;;68.75;;
64714;SDS011;51144;53.002;6.506;2023-04-23T04:28:51;397.83;;;80.53;;
64714;SDS011;51144;53.002;6.506;2023-04-23T04:31:17;344.30;;;73.18;;
64714;SDS011;51144;53.002;6.506;2023-04-23T04:33:45;283.63;;;72.97;;
64714;SDS011;51144;53.002;6.506;2023-04-23T04:36:11;232.13;;;67.22;;
64714;SDS011;51144;53.002;6.506;2023-04-23T04:38:37;242.07;;;68.40;;
64714;SDS011;51144;53.002;6.506;2023-04-23T04:41:03;351.27;;;75.85;;
64714;SDS011;51144;53.002;6.506;2023-04-23T04:43:30;433.20;;;84.78;;
64714;SDS011;51144;53.002;6.506;2023-04-23T04:45:57;398.90;;;76.97;;
64714;SDS011;51144;53.002;6.506;2023-04-23T04:48:23;411.20;;;80.90;;
64714;SDS011;51144;53.002;6.506;2023-04-23T04:50:49;371.02;;;78.80;;
64714;SDS011;51144;53.002;6.506;2023-04-23T04:53:16;371.88;;;86.20;;
64714;SDS011;51144;53.002;6.506;2023-04-23T04:55:41;312.30;;;75.07;;
64714;SDS011;51144;53.002;6.506;2023-04-23T04:58:07;368.52;;;86.50;;
64714;SDS011;51144;53.002;6.506;2023-04-23T05:00:33;310.15;;;81.35;;
64714;SDS011;51144;53.002;6.506;2023-04-23T05:02:58;308.90;;;83.15;;
64714;SDS011;51144;53.002;6.506;2023-04-23T05:05:25;462.58;;;96.28;;
64714;SDS011;51144;53.002;6.506;2023-04-23T05:07:51;305.17;;;81.75;;
64714;SDS011;51144;53.002;6.506;2023-04-23T05:10:23;252.05;;;80.60;;
64714;SDS011;51144;53.002;6.506;2023-04-23T05:12:50;243.52;;;84.25;;
64714;SDS011;51144;53.002;6.506;2023-04-23T05:15:15;260.95;;;85.65;;
64714;SDS011;51144;53.002;6.506;2023-04-23T05:17:41;218.68;;;84.57;;
64714;SDS011;51144;53.002;6.506;2023-04-23T05:20:08;215.15;;;82.68;;
64714;SDS011;51144;53.002;6.506;2023-04-23T05:22:38;217.25;;;85.15;;
64714;SDS011;51144;53.002;6.506;2023-04-23T05:25:05;168.98;;;80.80;;
64714;SDS011;51144;53.002;6.506;2023-04-23T05:27:32;175.13;;;83.38;;
64714;SDS011;51144;53.002;6.506;2023-04-23T05:29:59;175.02;;;82.88;;
64714;SDS011;51144;53.002;6.506;2023-04-23T05:32:28;157.73;;;80.10;;
64714;SDS011;51144;53.002;6.506;2023-04-23T05:34:54;159.98;;;81.78;;
64714;SDS011;51144;53.002;6.506;2023-04-23T05:37:20;146.88;;;79.65;;
64714;SDS011;51144;53.002;6.506;2023-04-23T05:39:46;153.55;;;79.82;;
64714;SDS011;51144;53.002;6.506;2023-04-23T05:42:11;149.77;;;82.65;;
64714;SDS011;51144;53.002;6.506;2023-04-23T05:44:37;146.30;;;79.65;;
64714;SDS011;51144;53.002;6.506;2023-04-23T05:47:03;147.35;;;80.68;;
64714;SDS011;51144;53.002;6.506;2023-04-23T05:49:28;141.55;;;78.38;;
64714;SDS011;51144;53.002;6.506;2023-04-23T05:51:55;136.60;;;78.63;;
64714;SDS011;51144;53.002;6.506;2023-04-23T05:54:22;127.47;;;74.88;;
64714;SDS011;51144;53.002;6.506;2023-04-23T05:56:48;117.80;;;71.22;;
64714;SDS011;51144;53.002;6.506;2023-04-23T05:59:13;117.07;;;72.82;;
64714;SDS011;51144;53.002;6.506;2023-04-23T06:01:39;112.75;;;70.32;;
64714;SDS011;51144;53.002;6.506;2023-04-23T06:04:06;108.97;;;71.60;;
64714;SDS011;51144;53.002;6.506;2023-04-23T06:06:32;113.55;;;70.82;;
64714;SDS011;51144;53.002;6.506;2023-04-23T06:08:57;111.82;;;69.72;;
64714;SDS011;51144;53.002;6.506;2023-04-23T06:11:23;105.80;;;68.60;;
64714;SDS011;51144;53.002;6.506;2023-04-23T06:13:49;99.22;;;68.25;;
64714;SDS011;51144;53.002;6.506;2023-04-23T06:16:15;92.35;;;65.40;;
64714;SDS011;51144;53.002;6.506;2023-04-23T06:18:40;92.88;;;66.20;;
64714;SDS011;51144;53.002;6.506;2023-04-23T06:21:06;87.57;;;64.13;;
64714;SDS011;51144;53.002;6.506;2023-04-23T06:23:32;84.63;;;60.90;;
64714;SDS011;51144;53.002;6.506;2023-04-23T06:25:58;79.75;;;60.85;;
64714;SDS011;51144;53.002;6.506;2023-04-23T06:28:25;72.32;;;56.08;;
64714;SDS011;51144;53.002;6.506;2023-04-23T06:30:51;72.47;;;54.03;;
64714;SDS011;51144;53.002;6.506;2023-04-23T14:33:59;3.15;;;0.50;;
64714;SDS011;51144;53.002;6.506;2023-04-23T14:36:25;2.40;;;0.30;;
64714;SDS011;51144;53.002;6.506;2023-04-23T14:38:50;5.25;;;0.50;;
64714;SDS011;51144;53.002;6.506;2023-04-23T14:41:16;7.55;;;0.50;;
64714;SDS011;51144;53.002;6.506;2023-04-23T14:43:42;6.97;;;0.30;;
64714;SDS011;51144;53.002;6.506;2023-04-23T14:46:07;5.35;;;0.50;;
64714;SDS011;51144;53.002;6.506;2023-04-23T14:48:33;3.08;;;0.50;;
64714;SDS011;51144;53.002;6.506;2023-04-23T14:50:59;3.28;;;0.40;;
64714;SDS011;51144;53.002;6.506;2023-04-23T14:53:25;2.65;;;0.38;;
64714;SDS011;51144;53.002;6.506;2023-04-23T14:55:51;4.35;;;0.50;;
64714;SDS011;51144;53.002;6.506;2023-04-23T14:58:17;3.55;;;0.50;;
64714;SDS011;51144;53.002;6.506;2023-04-23T15:00:42;6.10;;;0.45;;
64714;SDS011;51144;53.002;6.506;2023-04-23T15:03:08;3.53;;;0.30;;
64714;SDS011;51144;53.002;6.506;2023-04-23T15:05:37;4.72;;;0.35;;
64714;SDS011;51144;53.002;6.506;2023-04-23T15:08:04;6.20;;;0.60;;
64714;SDS011;51144;53.002;6.506;2023-04-23T15:10:30;7.65;;;0.43;;
64714;SDS011;51144;53.002;6.506;2023-04-23T15:13:02;5.22;;;0.47;;
64714;SDS011;51144;53.002;6.506;2023-04-23T15:18:12;4.60;;;0.50;;
64714;SDS011;51144;53.002;6.506;2023-04-23T15:20:38;6.95;;;0.90;;
64714;SDS011;51144;53.002;6.506;2023-04-23T15:23:04;6.93;;;0.88;;
64714;SDS011;51144;53.002;6.506;2023-04-23T15:25:30;4.65;;;0.50;;
64714;SDS011;51144;53.002;6.506;2023-04-23T15:27:57;6.82;;;0.50;;
64714;SDS011;51144;53.002;6.506;2023-04-23T15:30:24;3.72;;;0.55;;
64714;SDS011;51144;53.002;6.506;2023-04-23T15:32:50;4.57;;;0.50;;
64714;SDS011;51144;53.002;6.506;2023-04-23T15:35:19;2.63;;;0.30;;
64714;SDS011;51144;53.002;6.506;2023-04-23T15:37:48;4.15;;;0.22;;
64714;SDS011;51144;53.002;6.506;2023-04-23T15:40:14;4.72;;;0.43;;
64714;SDS011;51144;53.002;6.506;2023-04-23T15:42:41;5.63;;;0.38;;
64714;SDS011;51144;53.002;6.506;2023-04-23T15:45:08;1.55;;;0.20;;
64714;SDS011;51144;53.002;6.506;2023-04-23T15:47:35;2.25;;;0.20;;
64714;SDS011;51144;53.002;6.506;2023-04-23T15:50:05;1.80;;;0.20;;
64714;SDS011;51144;53.002;6.506;2023-04-23T15:52:32;1.52;;;0.30;;
64714;SDS011;51144;53.002;6.506;2023-04-23T15:54:58;3.03;;;0.20;;
64714;SDS011;51144;53.002;6.506;2023-04-23T15:57:24;5.88;;;0.68;;
64714;SDS011;51144;53.002;6.506;2023-04-23T15:59:50;3.28;;;0.82;;
64714;SDS011;51144;53.002;6.506;2023-04-23T16:02:15;3.33;;;0.40;;
64714;SDS011;51144;53.002;6.506;2023-04-23T16:04:42;3.13;;;0.28;;
64714;SDS011;51144;53.002;6.506;2023-04-23T16:07:08;6.63;;;0.38;;
64714;SDS011;51144;53.002;6.506;2023-04-23T16:09:33;3.08;;;0.28;;
64714;SDS011;51144;53.002;6.506;2023-04-23T16:12:00;3.67;;;0.50;;
64714;SDS011;51144;53.002;6.506;2023-04-23T16:14:25;3.25;;;0.55;;
64714;SDS011;51144;53.002;6.506;2023-04-23T16:16:51;5.93;;;0.40;;
64714;SDS011;51144;53.002;6.506;2023-04-23T16:19:17;2.55;;;0.55;;
64714;SDS011;51144;53.002;6.506;2023-04-23T16:21:42;4.18;;;0.30;;
64714;SDS011;51144;53.002;6.506;2023-04-23T16:24:08;4.65;;;0.60;;
64714;SDS011;51144;53.002;6.506;2023-04-23T16:26:34;2.95;;;0.45;;
64714;SDS011;51144;53.002;6.506;2023-04-23T16:29:00;2.55;;;0.30;;
64714;SDS011;51144;53.002;6.506;2023-04-23T16:31:26;2.40;;;0.20;;
64714;SDS011;51144;53.002;6.506;2023-04-23T16:33:51;3.60;;;0.30;;
64714;SDS011;51144;53.002;6.506;2023-04-23T16:36:17;2.72;;;0.38;;
64714;SDS011;51144;53.002;6.506;2023-04-23T16:38:43;4.53;;;0.52;;
64714;SDS011;51144;53.002;6.506;2023-04-23T16:41:11;4.28;;;0.30;;
64714;SDS011;51144;53.002;6.506;2023-04-23T16:43:39;2.38;;;0.30;;
64714;SDS011;51144;53.002;6.506;2023-04-23T16:46:05;4.80;;;0.38;;
64714;SDS011;51144;53.002;6.506;2023-04-23T16:48:33;6.43;;;0.30;;
64714;SDS011;51144;53.002;6.506;2023-04-23T16:50:58;2.72;;;0.28;;
64714;SDS011;51144;53.002;6.506;2023-04-23T16:53:24;4.78;;;0.20;;
64714;SDS011;51144;53.002;6.506;2023-04-23T16:55:50;2.28;;;0.40;;
64714;SDS011;51144;53.002;6.506;2023-04-23T16:58:16;2.10;;;0.30;;
64714;SDS011;51144;53.002;6.506;2023-04-23T17:00:42;4.68;;;0.38;;
64714;SDS011;51144;53.002;6.506;2023-04-23T17:03:09;5.18;;;0.50;;
64714;SDS011;51144;53.002;6.506;2023-04-23T17:05:34;4.55;;;0.20;;
64714;SDS011;51144;53.002;6.506;2023-04-23T17:08:03;2.25;;;0.40;;
64714;SDS011;51144;53.002;6.506;2023-04-23T17:10:29;3.42;;;0.43;;
64714;SDS011;51144;53.002;6.506;2023-04-23T17:12:55;1.20;;;0.10;;
64714;SDS011;51144;53.002;6.506;2023-04-23T17:15:20;1.45;;;0.10;;
64714;SDS011;51144;53.002;6.506;2023-04-23T17:17:47;0.93;;;0.20;;
64714;SDS011;51144;53.002;6.506;2023-04-23T17:20:13;1.27;;;0.10;;
64714;SDS011;51144;53.002;6.506;2023-04-23T17:22:38;0.98;;;0.13;;
64714;SDS011;51144;53.002;6.506;2023-04-23T17:25:04;1.83;;;0.20;;
64714;SDS011;51144;53.002;6.506;2023-04-23T17:27:30;1.50;;;0.20;;
64714;SDS011;51144;53.002;6.506;2023-04-23T17:29:56;2.17;;;0.30;;
64714;SDS011;51144;53.002;6.506;2023-04-23T17:32:22;2.78;;;0.35;;
64714;SDS011;51144;53.002;6.506;2023-04-23T17:34:48;3.08;;;0.20;;
64714;SDS011;51144;53.002;6.506;2023-04-23T17:37:14;3.20;;;0.20;;
64714;SDS011;51144;53.002;6.506;2023-04-23T17:39:40;3.00;;;0.22;;
64714;SDS011;51144;53.002;6.506;2023-04-23T17:42:06;3.55;;;0.50;;
64714;SDS011;51144;53.002;6.506;2023-04-23T17:44:32;8.38;;;1.85;;
64714;SDS011;51144;53.002;6.506;2023-04-23T17:46:59;7.10;;;0.30;;
64714;SDS011;51144;53.002;6.506;2023-04-23T17:49:26;3.20;;;0.68;;
64714;SDS011;51144;53.002;6.506;2023-04-23T17:51:52;1.90;;;0.57;;
64714;SDS011;51144;53.002;6.506;2023-04-23T17:54:17;2.28;;;0.10;;
64714;SDS011;51144;53.002;6.506;2023-04-23T17:56:49;1.27;;;0.20;;
64714;SDS011;51144;53.002;6.506;2023-04-23T17:59:18;2.50;;;0.40;;
64714;SDS011;51144;53.002;6.506;2023-04-23T18:01:44;3.63;;;0.40;;
64714;SDS011;51144;53.002;6.506;2023-04-23T18:04:10;3.05;;;0.35;;
64714;SDS011;51144;53.002;6.506;2023-04-23T18:06:35;1.95;;;0.20;;
64714;SDS011;51144;53.002;6.506;2023-04-23T18:09:01;2.65;;;0.30;;
64714;SDS011;51144;53.002;6.506;2023-04-23T18:11:27;6.45;;;0.70;;
64714;SDS011;51144;53.002;6.506;2023-04-23T18:13:53;1.05;;;0.30;;
64714;SDS011;51144;53.002;6.506;2023-04-23T18:16:18;6.18;;;0.55;;
64714;SDS011;51144;53.002;6.506;2023-04-23T18:18:44;6.70;;;1.52;;
64714;SDS011;51144;53.002;6.506;2023-04-23T18:21:10;6.13;;;0.80;;
64714;SDS011;51144;53.002;6.506;2023-04-23T18:23:38;2.90;;;0.40;;
64714;SDS011;51144;53.002;6.506;2023-04-23T18:26:04;5.93;;;0.82;;
64714;SDS011;51144;53.002;6.506;2023-04-23T18:28:30;4.00;;;0.60;;
64714;SDS011;51144;53.002;6.506;2023-04-23T18:30:56;4.53;;;0.85;;
64714;SDS011;51144;53.002;6.506;2023-04-23T18:36:00;6.85;;;1.30;;
64714;SDS011;51144;53.002;6.506;2023-04-23T18:38:43;10.65;;;1.15;;
64714;SDS011;51144;53.002;6.506;2023-04-23T18:41:09;4.13;;;0.77;;
64714;SDS011;51144;53.002;6.506;2023-04-23T18:43:35;3.78;;;0.63;;
64714;SDS011;51144;53.002;6.506;2023-04-23T18:46:01;5.65;;;1.33;;
64714;SDS011;51144;53.002;6.506;2023-04-23T18:51:23;3.28;;;0.60;;
64714;SDS011;51144;53.002;6.506;2023-04-23T18:53:49;3.47;;;0.95;;
64714;SDS011;51144;53.002;6.506;2023-04-23T18:56:14;3.75;;;0.65;;
64714;SDS011;51144;53.002;6.506;2023-04-23T18:58:40;3.53;;;0.52;;
64714;SDS011;51144;53.002;6.506;2023-04-23T19:01:06;6.22;;;0.95;;
64714;SDS011;51144;53.002;6.506;2023-04-23T19:03:31;5.30;;;0.85;;
64714;SDS011;51144;53.002;6.506;2023-04-23T19:05:57;3.53;;;0.57;;
64714;SDS011;51144;53.002;6.506;2023-04-23T19:08:23;4.22;;;0.60;;
64714;SDS011;51144;53.002;6.506;2023-04-23T19:10:53;5.65;;;0.55;;
64714;SDS011;51144;53.002;6.506;2023-04-23T19:13:19;2.80;;;0.60;;
64714;SDS011;51144;53.002;6.506;2023-04-23T19:15:46;4.70;;;0.70;;
64714;SDS011;51144;53.002;6.506;2023-04-23T19:18:14;3.17;;;0.55;;
64714;SDS011;51144;53.002;6.506;2023-04-23T19:20:43;4.28;;;0.80;;
64714;SDS011;51144;53.002;6.506;2023-04-23T19:23:10;3.53;;;0.43;;
64714;SDS011;51144;53.002;6.506;2023-04-23T19:25:35;3.63;;;0.50;;
64714;SDS011;51144;53.002;6.506;2023-04-23T19:28:01;5.00;;;1.25;;
64714;SDS011;51144;53.002;6.506;2023-04-23T19:30:27;2.80;;;0.73;;
64714;SDS011;51144;53.002;6.506;2023-04-23T19:32:52;4.50;;;0.73;;
64714;SDS011;51144;53.002;6.506;2023-04-23T19:35:18;4.38;;;0.90;;
64714;SDS011;51144;53.002;6.506;2023-04-23T19:37:45;3.63;;;0.73;;
64714;SDS011;51144;53.002;6.506;2023-04-23T19:40:11;3.85;;;0.65;;
64714;SDS011;51144;53.002;6.506;2023-04-23T19:42:37;5.28;;;1.05;;
64714;SDS011;51144;53.002;6.506;2023-04-23T19:45:03;4.93;;;1.13;;
64714;SDS011;51144;53.002;6.506;2023-04-23T19:47:29;3.70;;;0.95;;
64714;SDS011;51144;53.002;6.506;2023-04-23T19:49:57;4.05;;;0.90;;
64714;SDS011;51144;53.002;6.506;2023-04-23T19:52:22;5.63;;;0.57;;
64714;SDS011;51144;53.002;6.506;2023-04-23T19:54:51;4.90;;;1.08;;
64714;SDS011;51144;53.002;6.506;2023-04-23T19:57:17;3.83;;;0.82;;
64714;SDS011;51144;53.002;6.506;2023-04-23T19:59:44;5.80;;;1.00;;
64714;SDS011;51144;53.002;6.506;2023-04-23T20:02:10;5.22;;;0.90;;
64714;SDS011;51144;53.002;6.506;2023-04-23T20:04:35;2.92;;;1.17;;
64714;SDS011;51144;53.002;6.506;2023-04-23T20:07:01;2.80;;;1.45;;
64714;SDS011;51144;53.002;6.506;2023-04-23T20:09:27;4.05;;;1.30;;
64714;SDS011;51144;53.002;6.506;2023-04-23T20:11:53;5.05;;;1.88;;
64714;SDS011;51144;53.002;6.506;2023-04-23T20:14:18;4.35;;;2.05;;
64714;SDS011;51144;53.002;6.506;2023-04-23T20:16:44;4.25;;;2.08;;
64714;SDS011;51144;53.002;6.506;2023-04-23T20:19:11;4.18;;;1.65;;
64714;SDS011;51144;53.002;6.506;2023-04-23T20:21:38;3.70;;;1.20;;
64714;SDS011;51144;53.002;6.506;2023-04-23T20:24:08;3.25;;;1.30;;
64714;SDS011;51144;53.002;6.506;2023-04-23T20:26:35;5.68;;;1.75;;
64714;SDS011;51144;53.002;6.506;2023-04-23T20:29:02;7.43;;;2.88;;
64714;SDS011;51144;53.002;6.506;2023-04-23T20:31:27;3.22;;;2.90;;
64714;SDS011;51144;53.002;6.506;2023-04-23T20:33:53;3.58;;;2.85;;
64714;SDS011;51144;53.002;6.506;2023-04-23T20:36:20;3.78;;;2.25;;
64714;SDS011;51144;53.002;6.506;2023-04-23T20:38:46;4.00;;;1.45;;
64714;SDS011;51144;53.002;6.506;2023-04-23T20:41:12;3.83;;;1.55;;
64714;SDS011;51144;53.002;6.506;2023-04-23T20:43:41;3.55;;;1.80;;
64714;SDS011;51144;53.002;6.506;2023-04-23T20:46:07;5.82;;;2.35;;
64714;SDS011;51144;53.002;6.506;2023-04-23T20:48:34;6.45;;;1.92;;
64714;SDS011;51144;53.002;6.506;2023-04-23T20:51:01;3.20;;;1.33;;
64714;SDS011;51144;53.002;6.506;2023-04-23T20:53:27;4.53;;;1.42;;
64714;SDS011;51144;53.002;6.506;2023-04-23T20:55:53;4.97;;;1.30;;
64714;SDS011;51144;53.002;6.506;2023-04-23T20:58:23;4.97;;;1.05;;
64714;SDS011;51144;53.002;6.506;2023-04-23T21:00:49;4.53;;;1.10;;
64714;SDS011;51144;53.002;6.506;2023-04-23T21:03:15;5.00;;;1.40;;
64714;SDS011;51144;53.002;6.506;2023-04-23T21:05:42;4.15;;;1.00;;
64714;SDS011;51144;53.002;6.506;2023-04-23T21:08:09;2.78;;;1.00;;
64714;SDS011;51144;53.002;6.506;2023-04-23T21:10:39;3.17;;;1.20;;
64714;SDS011;51144;53.002;6.506;2023-04-23T21:13:08;4.18;;;0.98;;
64714;SDS011;51144;53.002;6.506;2023-04-23T21:15:35;3.58;;;0.90;;
64714;SDS011;51144;53.002;6.506;2023-04-23T21:18:01;2.22;;;0.80;;
64714;SDS011;51144;53.002;6.506;2023-04-23T21:20:28;2.47;;;0.82;;
64714;SDS011;51144;53.002;6.506;2023-04-23T21:22:54;1.95;;;1.00;;
64714;SDS011;51144;53.002;6.506;2023-04-23T21:25:19;2.83;;;1.00;;
64714;SDS011;51144;53.002;6.506;2023-04-23T21:27:45;2.67;;;1.08;;
64714;SDS011;51144;53.002;6.506;2023-04-23T21:30:22;5.00;;;1.25;;
64714;SDS011;51144;53.002;6.506;2023-04-23T21:32:56;4.05;;;1.25;;
64714;SDS011;51144;53.002;6.506;2023-04-23T21:35:22;2.90;;;1.50;;
64714;SDS011;51144;53.002;6.506;2023-04-23T21:37:47;7.72;;;2.42;;
64714;SDS011;51144;53.002;6.506;2023-04-23T21:40:13;4.82;;;1.75;;
64714;SDS011;51144;53.002;6.506;2023-04-23T21:42:38;3.72;;;2.58;;
64714;SDS011;51144;53.002;6.506;2023-04-23T21:45:04;6.63;;;2.35;;
64714;SDS011;51144;53.002;6.506;2023-04-23T21:47:31;4.47;;;3.08;;
64714;SDS011;51144;53.002;6.506;2023-04-23T21:49:56;4.22;;;2.88;;
64714;SDS011;51144;53.002;6.506;2023-04-23T21:52:22;3.85;;;3.13;;
64714;SDS011;51144;53.002;6.506;2023-04-23T21:54:50;5.15;;;3.00;;
64714;SDS011;51144;53.002;6.506;2023-04-23T21:57:16;5.47;;;3.03;;
64714;SDS011;51144;53.002;6.506;2023-04-23T21:59:41;4.07;;;3.58;;
64714;SDS011;51144;53.002;6.506;2023-04-23T22:02:07;4.22;;;3.83;;
64714;SDS011;51144;53.002;6.506;2023-04-23T22:04:33;3.50;;;3.20;;
64714;SDS011;51144;53.002;6.506;2023-04-23T22:06:58;5.90;;;4.20;;
64714;SDS011;51144;53.002;6.506;2023-04-23T22:09:28;4.05;;;3.55;;
64714;SDS011;51144;53.002;6.506;2023-04-23T22:11:54;4.30;;;3.88;;
64714;SDS011;51144;53.002;6.506;2023-04-23T22:14:19;5.00;;;3.97;;
64714;SDS011;51144;53.002;6.506;2023-04-23T22:16:45;5.82;;;3.75;;
64714;SDS011;51144;53.002;6.506;2023-04-23T22:19:13;5.00;;;4.50;;
64714;SDS011;51144;53.002;6.506;2023-04-23T22:21:40;8.55;;;4.35;;
64714;SDS011;51144;53.002;6.506;2023-04-23T22:24:05;11.25;;;4.20;;
64714;SDS011;51144;53.002;6.506;2023-04-23T22:26:31;7.10;;;4.28;;
64714;SDS011;51144;53.002;6.506;2023-04-23T22:28:58;4.57;;;3.97;;
64714;SDS011;51144;53.002;6.506;2023-04-23T22:31:23;5.00;;;3.75;;
64714;SDS011;51144;53.002;6.506;2023-04-23T22:33:49;6.50;;;3.42;;
64714;SDS011;51144;53.002;6.506;2023-04-23T22:36:15;10.30;;;3.60;;